EDJA

Memmingen Allgau Airport

Memmingen, Germany
METAR EDJA 181950Z 00000KT 9999 FEW006 BKN031 M02/M03 Q1025
Observed Flight Rules
Dec-18 @ 19:50 UTC (29 minutes ago) Visual Flight Rules
Wind Visibility Clouds
Calm 10,000+ meters
  • Few at 600' AGL
  • Broken at 3,100' AGL
Temperatures Readings
Current -2°C / 28°F
Dewpoint -3°C / 27°F
Humidity 93%
Altimeter 30.27" Hg
Pressure 1025 hPa
Elevation 633
METAR EDJA 181950Z 00000KT 9999 FEW006 BKN031 M02/M03 Q1025
Observed Flight Rules
Dec-18 @ 19:50 UTC
(29 minutes ago)
VFR
Wind Visibility
Calm 10,000+ meters
Clouds
  • Few at 600' AGL
  • Broken at 3,100' AGL
Temperature Dewpoint
-2°C / 28°F -3°C / 27°F
Humidity Altimeter Pressure
93% 30.27" Hg 1025 hPa